sensor_id;sensor_type;location;lat;lon;timestamp;pressure;altitude;pressure_sealevel;temperature;humidity
69171;BME280;56279;47.902;12.308;2023-09-19T00:00:35;95129.63;;;15.45;100.00
69171;BME280;56279;47.902;12.308;2023-09-19T00:02:37;95133.66;;;15.42;100.00
69171;BME280;56279;47.902;12.308;2023-09-19T00:04:40;95128.63;;;15.41;100.00
69171;BME280;56279;47.902;12.308;2023-09-19T00:06:44;95125.19;;;15.40;100.00
69171;BME280;56279;47.902;12.308;2023-09-19T00:08:45;95125.50;;;15.39;100.00
69171;BME280;56279;47.902;12.308;2023-09-19T00:10:49;95126.28;;;15.39;100.00
69171;BME280;56279;47.902;12.308;2023-09-19T00:12:51;95128.63;;;15.41;100.00
69171;BME280;56279;47.902;12.308;2023-09-19T00:14:54;95131.59;;;15.39;100.00
69171;BME280;56279;47.902;12.308;2023-09-19T00:16:56;95127.34;;;15.38;100.00
69171;BME280;56279;47.902;12.308;2023-09-19T00:19:02;95128.47;;;15.37;100.00
69171;BME280;56279;47.902;12.308;2023-09-19T00:21:09;95133.78;;;15.37;100.00
69171;BME280;56279;47.902;12.308;2023-09-19T00:23:11;95126.09;;;15.36;100.00
69171;BME280;56279;47.902;12.308;2023-09-19T00:25:12;95137.84;;;15.35;100.00
69171;BME280;56279;47.902;12.308;2023-09-19T00:27:16;95131.28;;;15.32;100.00
69171;BME280;56279;47.902;12.308;2023-09-19T00:29:20;95131.88;;;15.29;100.00
69171;BME280;56279;47.902;12.308;2023-09-19T00:31:22;95117.66;;;15.25;100.00
69171;BME280;56279;47.902;12.308;2023-09-19T00:33:26;95134.22;;;15.22;100.00
69171;BME280;56279;47.902;12.308;2023-09-19T00:35:31;95143.13;;;15.17;100.00
69171;BME280;56279;47.902;12.308;2023-09-19T00:37:32;95130.75;;;15.13;100.00
69171;BME280;56279;47.902;12.308;2023-09-19T00:39:33;95124.19;;;15.10;100.00
69171;BME280;56279;47.902;12.308;2023-09-19T00:41:35;95132.47;;;15.09;100.00
69171;BME280;56279;47.902;12.308;2023-09-19T00:43:37;95129.81;;;15.09;100.00
69171;BME280;56279;47.902;12.308;2023-09-19T00:45:42;95138.59;;;15.09;100.00
69171;BME280;56279;47.902;12.308;2023-09-19T00:47:47;95139.34;;;15.10;100.00
69171;BME280;56279;47.902;12.308;2023-09-19T00:49:53;95137.19;;;15.12;100.00
69171;BME280;56279;47.902;12.308;2023-09-19T00:51:55;95129.69;;;15.14;100.00
69171;BME280;56279;47.902;12.308;2023-09-19T00:54:00;95135.47;;;15.16;100.00
69171;BME280;56279;47.902;12.308;2023-09-19T00:56:03;95141.25;;;15.18;100.00
69171;BME280;56279;47.902;12.308;2023-09-19T01:00:26;95131.56;;;15.22;100.00
69171;BME280;56279;47.902;12.308;2023-09-19T01:02:27;95127.97;;;15.27;100.00
69171;BME280;56279;47.902;12.308;2023-09-19T01:04:29;95125.16;;;15.32;100.00
69171;BME280;56279;47.902;12.308;2023-09-19T01:06:32;95133.00;;;15.37;99.83
69171;BME280;56279;47.902;12.308;2023-09-19T01:08:34;95130.97;;;15.42;99.70
69171;BME280;56279;47.902;12.308;2023-09-19T01:10:40;95128.50;;;15.46;99.59
69171;BME280;56279;47.902;12.308;2023-09-19T01:15:21;95143.69;;;15.54;99.03
69171;BME280;56279;47.902;12.308;2023-09-19T01:17:29;95134.94;;;15.53;98.89
69171;BME280;56279;47.902;12.308;2023-09-19T01:19:54;95132.41;;;15.57;98.97
69171;BME280;56279;47.902;12.308;2023-09-19T01:22:26;95140.88;;;15.59;98.63
69171;BME280;56279;47.902;12.308;2023-09-19T01:25:03;95149.34;;;15.61;98.29
69171;BME280;56279;47.902;12.308;2023-09-19T01:42:24;95156.34;;;15.57;98.81
69171;BME280;56279;47.902;12.308;2023-09-19T01:46:49;95155.41;;;15.61;99.05
69171;BME280;56279;47.902;12.308;2023-09-19T01:51:06;95152.59;;;15.66;98.76
69171;BME280;56279;47.902;12.308;2023-09-19T01:53:28;95160.28;;;15.68;98.49
69171;BME280;56279;47.902;12.308;2023-09-19T01:55:36;95158.09;;;15.70;98.51
69171;BME280;56279;47.902;12.308;2023-09-19T01:57:51;95158.56;;;15.72;98.28
69171;BME280;56279;47.902;12.308;2023-09-19T02:00:07;95158.56;;;15.72;98.35
69171;BME280;56279;47.902;12.308;2023-09-19T02:02:16;95162.50;;;15.74;98.32
69171;BME280;56279;47.902;12.308;2023-09-19T02:04:18;95165.16;;;15.74;98.02
69171;BME280;56279;47.902;12.308;2023-09-19T02:06:21;95168.28;;;15.76;98.08
69171;BME280;56279;47.902;12.308;2023-09-19T02:08:23;95172.50;;;15.77;98.19
69171;BME280;56279;47.902;12.308;2023-09-19T02:10:27;95170.47;;;15.83;98.24
69171;BME280;56279;47.902;12.308;2023-09-19T02:12:29;95177.81;;;15.86;97.84
69171;BME280;56279;47.902;12.308;2023-09-19T02:19:45;95203.81;;;15.89;97.70
69171;BME280;56279;47.902;12.308;2023-09-19T02:21:46;95215.09;;;15.86;97.55
69171;BME280;56279;47.902;12.308;2023-09-19T02:23:49;95195.03;;;15.80;97.94
69171;BME280;56279;47.902;12.308;2023-09-19T02:25:56;95198.94;;;15.74;97.83
69171;BME280;56279;47.902;12.308;2023-09-19T02:28:05;95206.59;;;15.75;97.84
69171;BME280;56279;47.902;12.308;2023-09-19T02:30:07;95205.84;;;15.75;97.55
69171;BME280;56279;47.902;12.308;2023-09-19T02:32:08;95214.31;;;15.77;97.23
69171;BME280;56279;47.902;12.308;2023-09-19T02:34:13;95225.72;;;15.77;96.97
69171;BME280;56279;47.902;12.308;2023-09-19T02:36:15;95220.09;;;15.79;96.47
69171;BME280;56279;47.902;12.308;2023-09-19T02:38:18;95221.81;;;15.83;96.25
69171;BME280;56279;47.902;12.308;2023-09-19T02:40:25;95229.19;;;15.86;95.88
69171;BME280;56279;47.902;12.308;2023-09-19T02:42:27;95224.00;;;15.90;95.43
69171;BME280;56279;47.902;12.308;2023-09-19T02:44:29;95225.88;;;15.89;95.78
69171;BME280;56279;47.902;12.308;2023-09-19T02:46:34;95233.88;;;15.89;95.92
69171;BME280;56279;47.902;12.308;2023-09-19T02:48:39;95233.88;;;15.89;96.32
69171;BME280;56279;47.902;12.308;2023-09-19T02:57:53;95221.97;;;15.87;97.15
69171;BME280;56279;47.902;12.308;2023-09-19T02:59:58;95218.22;;;15.88;97.24
69171;BME280;56279;47.902;12.308;2023-09-19T03:02:02;95226.19;;;15.88;96.85
69171;BME280;56279;47.902;12.308;2023-09-19T03:04:06;95228.88;;;15.88;97.43
69171;BME280;56279;47.902;12.308;2023-09-19T03:10:51;95219.94;;;15.84;97.66
69171;BME280;56279;47.902;12.308;2023-09-19T03:12:53;95222.91;;;15.82;97.61
69171;BME280;56279;47.902;12.308;2023-09-19T03:14:58;95230.59;;;15.84;97.75
69171;BME280;56279;47.902;12.308;2023-09-19T03:17:01;95231.38;;;15.84;97.84
69171;BME280;56279;47.902;12.308;2023-09-19T03:19:05;95232.13;;;15.85;97.83
69171;BME280;56279;47.902;12.308;2023-09-19T03:21:08;95228.41;;;15.86;97.96
69171;BME280;56279;47.902;12.308;2023-09-19T03:23:10;95224.63;;;15.87;97.70
69171;BME280;56279;47.902;12.308;2023-09-19T03:25:12;95227.00;;;15.88;97.76
69171;BME280;56279;47.902;12.308;2023-09-19T03:27:19;95228.25;;;15.91;97.26
69171;BME280;56279;47.902;12.308;2023-09-19T03:29:22;95224.19;;;15.94;97.35
69171;BME280;56279;47.902;12.308;2023-09-19T03:31:24;95221.19;;;15.95;97.40
69171;BME280;56279;47.902;12.308;2023-09-19T03:33:25;95220.88;;;15.97;97.36
69171;BME280;56279;47.902;12.308;2023-09-19T03:35:27;95223.25;;;15.98;97.14
69171;BME280;56279;47.902;12.308;2023-09-19T03:37:28;95216.00;;;15.99;97.03
69171;BME280;56279;47.902;12.308;2023-09-19T03:39:30;95215.72;;;16.00;97.26
69171;BME280;56279;47.902;12.308;2023-09-19T03:41:32;95222.59;;;16.01;97.48
69171;BME280;56279;47.902;12.308;2023-09-19T03:43:34;95213.53;;;16.02;97.04
69171;BME280;56279;47.902;12.308;2023-09-19T03:45:39;95216.66;;;16.04;97.30
69171;BME280;56279;47.902;12.308;2023-09-19T03:47:42;95218.53;;;16.04;97.54
69171;BME280;56279;47.902;12.308;2023-09-19T03:49:45;95218.84;;;16.02;97.76
69171;BME280;56279;47.902;12.308;2023-09-19T03:51:46;95223.09;;;16.03;97.54
69171;BME280;56279;47.902;12.308;2023-09-19T03:53:50;95222.78;;;16.05;97.92
69171;BME280;56279;47.902;12.308;2023-09-19T03:55:54;95219.31;;;16.04;97.81
69171;BME280;56279;47.902;12.308;2023-09-19T03:57:57;95218.53;;;16.04;97.77
69171;BME280;56279;47.902;12.308;2023-09-19T03:59:59;95215.56;;;16.05;97.96
69171;BME280;56279;47.902;12.308;2023-09-19T04:02:01;95216.66;;;16.04;97.61
69171;BME280;56279;47.902;12.308;2023-09-19T04:04:03;95221.66;;;16.06;97.90
69171;BME280;56279;47.902;12.308;2023-09-19T04:06:16;95218.25;;;16.05;97.60
69171;BME280;56279;47.902;12.308;2023-09-19T04:08:17;95224.31;;;16.06;97.62
69171;BME280;56279;47.902;12.308;2023-09-19T04:10:19;95219.78;;;16.06;97.29
69171;BME280;56279;47.902;12.308;2023-09-19T04:12:22;95228.22;;;16.08;97.06
69171;BME280;56279;47.902;12.308;2023-09-19T04:14:23;95223.69;;;16.09;97.27
69171;BME280;56279;47.902;12.308;2023-09-19T04:16:25;95227.47;;;16.08;96.96
69171;BME280;56279;47.902;12.308;2023-09-19T04:18:26;95228.56;;;16.07;96.93
69171;BME280;56279;47.902;12.308;2023-09-19T04:20:28;95233.56;;;16.08;96.80
69171;BME280;56279;47.902;12.308;2023-09-19T04:22:30;95235.13;;;16.09;96.42
69171;BME280;56279;47.902;12.308;2023-09-19T04:24:32;95240.94;;;16.11;96.71
69171;BME280;56279;47.902;12.308;2023-09-19T04:26:34;95239.53;;;16.14;96.52
69171;BME280;56279;47.902;12.308;2023-09-19T04:28:35;95242.66;;;16.16;96.37
69171;BME280;56279;47.902;12.308;2023-09-19T04:30:39;95243.91;;;16.18;96.51
69171;BME280;56279;47.902;12.308;2023-09-19T04:32:46;95255.34;;;16.19;96.16
69171;BME280;56279;47.902;12.308;2023-09-19T04:34:55;95252.38;;;16.20;95.94
69171;BME280;56279;47.902;12.308;2023-09-19T04:37:01;95247.50;;;16.22;95.93
69171;BME280;56279;47.902;12.308;2023-09-19T04:39:03;95247.22;;;16.24;95.70
69171;BME280;56279;47.902;12.308;2023-09-19T04:41:09;95252.22;;;16.25;95.50
69171;BME280;56279;47.902;12.308;2023-09-19T04:43:10;95258.78;;;16.28;95.27
69171;BME280;56279;47.902;12.308;2023-09-19T04:45:12;95261.13;;;16.29;94.94
69171;BME280;56279;47.902;12.308;2023-09-19T04:47:13;95257.84;;;16.32;94.43
69171;BME280;56279;47.902;12.308;2023-09-19T04:49:14;95272.75;;;16.33;94.01
69171;BME280;56279;47.902;12.308;2023-09-19T04:51:16;95267.09;;;16.35;93.91
69171;BME280;56279;47.902;12.308;2023-09-19T04:53:20;95271.34;;;16.36;93.54
69171;BME280;56279;47.902;12.308;2023-09-19T04:55:22;95278.22;;;16.37;93.34
69171;BME280;56279;47.902;12.308;2023-09-19T04:57:24;95282.47;;;16.38;92.93
69171;BME280;56279;47.902;12.308;2023-09-19T04:59:26;95272.88;;;16.37;93.06
69171;BME280;56279;47.902;12.308;2023-09-19T05:01:29;95281.19;;;16.35;93.01
69171;BME280;56279;47.902;12.308;2023-09-19T05:03:31;95288.41;;;16.35;92.91
69171;BME280;56279;47.902;12.308;2023-09-19T05:05:32;95293.25;;;16.33;92.85
69171;BME280;56279;47.902;12.308;2023-09-19T05:07:36;95296.22;;;16.31;92.92
69171;BME280;56279;47.902;12.308;2023-09-19T05:09:40;95295.75;;;16.29;92.82
69171;BME280;56279;47.902;12.308;2023-09-19T05:11:43;95293.41;;;16.28;92.78
69171;BME280;56279;47.902;12.308;2023-09-19T05:13:45;95300.63;;;16.27;92.82
69171;BME280;56279;47.902;12.308;2023-09-19T05:15:46;95308.94;;;16.26;92.92
69171;BME280;56279;47.902;12.308;2023-09-19T05:17:54;95308.47;;;16.24;92.75
69171;BME280;56279;47.902;12.308;2023-09-19T05:20:03;95306.88;;;16.23;93.12
69171;BME280;56279;47.902;12.308;2023-09-19T05:22:16;95307.19;;;16.21;93.00
69171;BME280;56279;47.902;12.308;2023-09-19T05:38:46;95332.44;;;16.32;92.42
69171;BME280;56279;47.902;12.308;2023-09-19T05:40:51;95329.44;;;16.34;92.48
69171;BME280;56279;47.902;12.308;2023-09-19T05:42:52;95337.94;;;16.36;92.48
69171;BME280;56279;47.902;12.308;2023-09-19T05:44:53;95336.81;;;16.37;92.62
69171;BME280;56279;47.902;12.308;2023-09-19T05:46:54;95339.16;;;16.38;92.41
69171;BME280;56279;47.902;12.308;2023-09-19T05:48:57;95338.53;;;16.41;92.18
69171;BME280;56279;47.902;12.308;2023-09-19T05:51:00;95344.03;;;16.45;92.24
69171;BME280;56279;47.902;12.308;2023-09-19T05:53:02;95345.78;;;16.49;91.52
69171;BME280;56279;47.902;12.308;2023-09-19T05:55:05;95342.19;;;16.54;91.13
69171;BME280;56279;47.902;12.308;2023-09-19T05:57:08;95344.72;;;16.59;90.67
69171;BME280;56279;47.902;12.308;2023-09-19T05:59:09;95344.22;;;16.66;90.25
69171;BME280;56279;47.902;12.308;2023-09-19T06:01:12;95349.88;;;16.73;89.93
69171;BME280;56279;47.902;12.308;2023-09-19T06:03:14;95347.53;;;16.80;89.44
69171;BME280;56279;47.902;12.308;2023-09-19T06:05:16;95348.13;;;16.85;89.17
69171;BME280;56279;47.902;12.308;2023-09-19T06:07:17;95355.19;;;16.90;88.29
69171;BME280;56279;47.902;12.308;2023-09-19T06:09:19;95350.81;;;16.94;87.88
69171;BME280;56279;47.902;12.308;2023-09-19T06:11:20;95357.84;;;16.98;87.53
69171;BME280;56279;47.902;12.308;2023-09-19T06:13:22;95358.78;;;17.02;87.70
69171;BME280;56279;47.902;12.308;2023-09-19T06:15:24;95358.16;;;17.05;86.88
69171;BME280;56279;47.902;12.308;2023-09-19T06:17:26;95360.97;;;17.09;86.57
69171;BME280;56279;47.902;12.308;2023-09-19T06:19:29;95360.81;;;17.14;86.86
69171;BME280;56279;47.902;12.308;2023-09-19T06:21:30;95364.09;;;17.19;86.75
69171;BME280;56279;47.902;12.308;2023-09-19T06:23:34;95362.81;;;17.25;86.20
69171;BME280;56279;47.902;12.308;2023-09-19T06:25:36;95367.19;;;17.30;86.07
69171;BME280;56279;47.902;12.308;2023-09-19T06:27:38;95368.91;;;17.35;86.07
69171;BME280;56279;47.902;12.308;2023-09-19T06:29:43;95370.63;;;17.39;86.01
69171;BME280;56279;47.902;12.308;2023-09-19T06:31:44;95372.34;;;17.44;85.99
69171;BME280;56279;47.902;12.308;2023-09-19T06:33:45;95378.28;;;17.49;85.41
69171;BME280;56279;47.902;12.308;2023-09-19T06:35:47;95376.59;;;17.53;85.31
69171;BME280;56279;47.902;12.308;2023-09-19T06:37:49;95383.97;;;17.56;85.51
69171;BME280;56279;47.902;12.308;2023-09-19T06:39:50;95385.22;;;17.59;84.72
69171;BME280;56279;47.902;12.308;2023-09-19T06:41:52;95385.53;;;17.57;84.93
69171;BME280;56279;47.902;12.308;2023-09-19T06:43:57;95383.97;;;17.56;84.79
69171;BME280;56279;47.902;12.308;2023-09-19T06:45:58;95383.16;;;17.56;85.01
69171;BME280;56279;47.902;12.308;2023-09-19T06:48:00;95384.28;;;17.55;85.17
69171;BME280;56279;47.902;12.308;2023-09-19T06:50:04;95384.28;;;17.55;84.96
69171;BME280;56279;47.902;12.308;2023-09-19T06:52:06;95386.63;;;17.56;85.40
69171;BME280;56279;47.902;12.308;2023-09-19T06:54:08;95393.53;;;17.57;84.81
69171;BME280;56279;47.902;12.308;2023-09-19T06:56:09;95390.88;;;17.57;84.50
69171;BME280;56279;47.902;12.308;2023-09-19T06:58:11;95388.66;;;17.59;84.43
69171;BME280;56279;47.902;12.308;2023-09-19T07:00:13;95395.25;;;17.62;84.50
69171;BME280;56279;47.902;12.308;2023-09-19T07:02:23;95397.72;;;17.67;84.15
69171;BME280;56279;47.902;12.308;2023-09-19T07:04:24;95398.34;;;17.72;84.13
69171;BME280;56279;47.902;12.308;2023-09-19T07:06:26;95394.38;;;17.78;84.07
69171;BME280;56279;47.902;12.308;2023-09-19T07:08:27;95398.94;;;17.86;83.81
69171;BME280;56279;47.902;12.308;2023-09-19T07:10:29;95401.41;;;17.91;83.21
69171;BME280;56279;47.902;12.308;2023-09-19T07:12:31;95395.91;;;17.97;82.88
69171;BME280;56279;47.902;12.308;2023-09-19T07:14:39;95401.06;;;18.02;82.57
69171;BME280;56279;47.902;12.308;2023-09-19T07:16:40;95405.56;;;18.10;82.75
69171;BME280;56279;47.902;12.308;2023-09-19T07:18:45;95406.94;;;18.16;82.84
69171;BME280;56279;47.902;12.308;2023-09-19T07:20:57;95406.78;;;18.21;82.14
69171;BME280;56279;47.902;12.308;2023-09-19T07:23:02;95410.56;;;18.20;81.83
69171;BME280;56279;47.902;12.308;2023-09-19T07:25:04;95410.75;;;18.15;81.53
69171;BME280;56279;47.902;12.308;2023-09-19T07:27:06;95413.59;;;18.10;81.98
69171;BME280;56279;47.902;12.308;2023-09-19T07:29:10;95418.47;;;18.08;81.81
69171;BME280;56279;47.902;12.308;2023-09-19T07:31:11;95421.16;;;18.08;81.97
69171;BME280;56279;47.902;12.308;2023-09-19T07:33:21;95418.28;;;18.13;81.51
69171;BME280;56279;47.902;12.308;2023-09-19T07:35:24;95413.88;;;18.17;81.43
69171;BME280;56279;47.902;12.308;2023-09-19T07:50:25;95427.41;;;18.12;81.15
69171;BME280;56279;47.902;12.308;2023-09-19T07:52:27;95431.59;;;18.21;81.47
69171;BME280;56279;47.902;12.308;2023-09-19T07:54:31;95431.56;;;18.30;80.37
69171;BME280;56279;47.902;12.308;2023-09-19T07:56:36;95429.81;;;18.34;80.69
69171;BME280;56279;47.902;12.308;2023-09-19T08:22:54;95421.72;;;19.33;76.07
69171;BME280;56279;47.902;12.308;2023-09-19T08:24:56;95431.13;;;19.40;75.69
69171;BME280;56279;47.902;12.308;2023-09-19T08:27:00;95430.47;;;19.43;75.43
69171;BME280;56279;47.902;12.308;2023-09-19T08:29:03;95428.94;;;19.42;74.86
69171;BME280;56279;47.902;12.308;2023-09-19T08:31:08;95430.81;;;19.41;75.07
69171;BME280;56279;47.902;12.308;2023-09-19T08:33:13;95433.16;;;19.43;74.76
69171;BME280;56279;47.902;12.308;2023-09-19T08:35:16;95434.41;;;19.45;74.80
69171;BME280;56279;47.902;12.308;2023-09-19T08:37:18;95433.19;;;19.55;74.62
69171;BME280;56279;47.902;12.308;2023-09-19T08:39:20;95435.91;;;19.67;73.83
69171;BME280;56279;47.902;12.308;2023-09-19T08:41:21;95438.06;;;19.73;74.47
69171;BME280;56279;47.902;12.308;2023-09-19T08:43:23;95435.38;;;19.73;73.91
69171;BME280;56279;47.902;12.308;2023-09-19T08:45:26;95438.69;;;19.70;74.09
69171;BME280;56279;47.902;12.308;2023-09-19T08:50:39;95432.34;;;19.75;74.77
69171;BME280;56279;47.902;12.308;2023-09-19T08:52:46;95442.50;;;19.81;74.68
69171;BME280;56279;47.902;12.308;2023-09-19T08:54:48;95440.41;;;19.87;74.38
69171;BME280;56279;47.902;12.308;2023-09-19T08:56:54;95442.31;;;19.86;74.26
69171;BME280;56279;47.902;12.308;2023-09-19T08:58:57;95437.75;;;19.87;73.92
69171;BME280;56279;47.902;12.308;2023-09-19T09:01:00;95442.53;;;19.93;74.64
69171;BME280;56279;47.902;12.308;2023-09-19T09:03:03;95438.34;;;20.05;74.30
69171;BME280;56279;47.902;12.308;2023-09-19T09:05:11;95450.03;;;20.12;74.21
69171;BME280;56279;47.902;12.308;2023-09-19T09:07:13;95440.91;;;20.13;74.16
69171;BME280;56279;47.902;12.308;2023-09-19T09:09:15;95449.16;;;20.08;74.47
69171;BME280;56279;47.902;12.308;2023-09-19T09:11:17;95446.69;;;20.03;74.14
69171;BME280;56279;47.902;12.308;2023-09-19T09:13:19;95445.00;;;19.98;74.36
69171;BME280;56279;47.902;12.308;2023-09-19T09:15:23;95447.25;;;19.96;74.45
69171;BME280;56279;47.902;12.308;2023-09-19T09:22:35;95449.34;;;19.91;74.13
69171;BME280;56279;47.902;12.308;2023-09-19T09:26:57;95451.31;;;20.27;73.76
69171;BME280;56279;47.902;12.308;2023-09-19T09:28:59;95444.19;;;20.43;72.84
69171;BME280;56279;47.902;12.308;2023-09-19T09:33:32;95440.69;;;20.79;71.63
69171;BME280;56279;47.902;12.308;2023-09-19T09:35:33;95435.94;;;21.00;70.60
69171;BME280;56279;47.902;12.308;2023-09-19T09:37:35;95438.06;;;21.06;69.95
69171;BME280;56279;47.902;12.308;2023-09-19T09:39:57;95437.34;;;21.21;69.69
69171;BME280;56279;47.902;12.308;2023-09-19T10:00:52;95434.16;;;21.87;67.49
69171;BME280;56279;47.902;12.308;2023-09-19T10:02:58;95430.72;;;21.86;67.60
69171;BME280;56279;47.902;12.308;2023-09-19T10:05:14;95428.34;;;21.85;66.70
69171;BME280;56279;47.902;12.308;2023-09-19T10:07:31;95428.78;;;21.87;67.33
69171;BME280;56279;47.902;12.308;2023-09-19T10:24:40;95424.78;;;22.59;65.31
69171;BME280;56279;47.902;12.308;2023-09-19T10:26:45;95424.34;;;22.57;65.28
69171;BME280;56279;47.902;12.308;2023-09-19T10:28:48;95419.56;;;22.50;65.36
69171;BME280;56279;47.902;12.308;2023-09-19T10:30:54;95428.84;;;22.53;66.07
69171;BME280;56279;47.902;12.308;2023-09-19T10:33:03;95427.16;;;22.60;65.69
69171;BME280;56279;47.902;12.308;2023-09-19T10:35:06;95425.66;;;22.63;64.49
69171;BME280;56279;47.902;12.308;2023-09-19T10:37:09;95421.84;;;22.64;63.97
69171;BME280;56279;47.902;12.308;2023-09-19T10:39:15;95420.72;;;22.65;63.81
69171;BME280;56279;47.902;12.308;2023-09-19T10:41:23;95432.97;;;22.62;63.56
69171;BME280;56279;47.902;12.308;2023-09-19T10:43:30;95430.63;;;22.61;63.55
69171;BME280;56279;47.902;12.308;2023-09-19T10:45:35;95428.97;;;22.56;63.99
69171;BME280;56279;47.902;12.308;2023-09-19T10:47:40;95431.91;;;22.51;63.53
69171;BME280;56279;47.902;12.308;2023-09-19T10:49:45;95428.28;;;22.44;62.67
69171;BME280;56279;47.902;12.308;2023-09-19T10:51:55;95436.34;;;22.28;61.79
69171;BME280;56279;47.902;12.308;2023-09-19T10:54:08;95435.84;;;22.07;62.30
69171;BME280;56279;47.902;12.308;2023-09-19T10:56:24;95434.50;;;21.85;61.81
69171;BME280;56279;47.902;12.308;2023-09-19T10:58:32;95432.56;;;21.70;62.87
69171;BME280;56279;47.902;12.308;2023-09-19T11:00:51;95440.34;;;21.60;64.00
69171;BME280;56279;47.902;12.308;2023-09-19T11:12:56;95434.50;;;20.90;67.61
69171;BME280;56279;47.902;12.308;2023-09-19T11:14:58;95445.16;;;20.75;68.29
69171;BME280;56279;47.902;12.308;2023-09-19T11:19:20;95433.09;;;20.56;69.17
69171;BME280;56279;47.902;12.308;2023-09-19T11:23:30;95432.44;;;20.59;68.58
69171;BME280;56279;47.902;12.308;2023-09-19T11:30:28;95429.09;;;20.62;68.51
69171;BME280;56279;47.902;12.308;2023-09-19T11:35:12;95428.88;;;20.67;69.21
69171;BME280;56279;47.902;12.308;2023-09-19T11:39:25;95422.53;;;21.00;68.98
69171;BME280;56279;47.902;12.308;2023-09-19T11:41:37;95424.06;;;21.13;68.22
69171;BME280;56279;47.902;12.308;2023-09-19T11:43:39;95420.91;;;21.23;68.38
69171;BME280;56279;47.902;12.308;2023-09-19T11:48:01;95421.81;;;21.43;66.92
69171;BME280;56279;47.902;12.308;2023-09-19T11:50:03;95416.66;;;21.50;66.52
69171;BME280;56279;47.902;12.308;2023-09-19T11:52:09;95422.56;;;21.55;66.31
69171;BME280;56279;47.902;12.308;2023-09-19T11:54:14;95423.66;;;21.54;65.11
69171;BME280;56279;47.902;12.308;2023-09-19T11:56:29;95427.84;;;21.52;64.73
69171;BME280;56279;47.902;12.308;2023-09-19T11:58:33;95419.28;;;21.62;64.27
69171;BME280;56279;47.902;12.308;2023-09-19T12:00:37;95407.25;;;21.71;63.94
69171;BME280;56279;47.902;12.308;2023-09-19T12:02:42;95416.28;;;21.79;63.25
69171;BME280;56279;47.902;12.308;2023-09-19T12:04:53;95415.03;;;21.88;62.80
69171;BME280;56279;47.902;12.308;2023-09-19T12:06:57;95415.88;;;21.92;60.75
69171;BME280;56279;47.902;12.308;2023-09-19T12:08:59;95412.91;;;21.82;60.38
69171;BME280;56279;47.902;12.308;2023-09-19T12:11:02;95421.81;;;21.70;61.16
69171;BME280;56279;47.902;12.308;2023-09-19T12:13:06;95414.34;;;21.64;60.41
69171;BME280;56279;47.902;12.308;2023-09-19T12:15:08;95412.69;;;21.59;60.74
69171;BME280;56279;47.902;12.308;2023-09-19T12:17:10;95418.06;;;21.59;61.17
69171;BME280;56279;47.902;12.308;2023-09-19T12:19:21;95413.91;;;21.62;60.68
69171;BME280;56279;47.902;12.308;2023-09-19T12:21:31;95405.16;;;21.65;60.42
69171;BME280;56279;47.902;12.308;2023-09-19T12:23:33;95412.63;;;21.71;60.12
69171;BME280;56279;47.902;12.308;2023-09-19T12:25:44;95406.81;;;21.69;59.96
69171;BME280;56279;47.902;12.308;2023-09-19T12:27:49;95417.91;;;21.68;59.82
69171;BME280;56279;47.902;12.308;2023-09-19T12:29:54;95416.09;;;21.72;58.73
69171;BME280;56279;47.902;12.308;2023-09-19T12:31:57;95413.16;;;21.77;58.75
69171;BME280;56279;47.902;12.308;2023-09-19T12:34:00;95415.59;;;21.82;58.94
69171;BME280;56279;47.902;12.308;2023-09-19T12:36:19;95412.34;;;21.88;59.24
69171;BME280;56279;47.902;12.308;2023-09-19T12:38:27;95407.47;;;21.94;58.96
69171;BME280;56279;47.902;12.308;2023-09-19T12:40:36;95406.78;;;21.97;57.45
69171;BME280;56279;47.902;12.308;2023-09-19T12:42:39;95409.09;;;21.98;57.47
69171;BME280;56279;47.902;12.308;2023-09-19T12:44:47;95415.69;;;22.01;57.07
69171;BME280;56279;47.902;12.308;2023-09-19T12:46:49;95404.25;;;22.04;56.89
69171;BME280;56279;47.902;12.308;2023-09-19T12:49:18;95409.63;;;22.04;57.41
69171;BME280;56279;47.902;12.308;2023-09-19T12:51:20;95404.19;;;22.00;57.27
69171;BME280;56279;47.902;12.308;2023-09-19T12:53:28;95396.03;;;21.97;56.49
69171;BME280;56279;47.902;12.308;2023-09-19T12:55:30;95394.91;;;21.98;57.21
69171;BME280;56279;47.902;12.308;2023-09-19T12:57:40;95394.66;;;22.03;57.69
69171;BME280;56279;47.902;12.308;2023-09-19T12:59:41;95398.63;;;22.09;56.57
69171;BME280;56279;47.902;12.308;2023-09-19T13:01:43;95395.84;;;22.06;55.34
69171;BME280;56279;47.902;12.308;2023-09-19T13:04:21;95393.09;;;22.02;55.91
69171;BME280;56279;47.902;12.308;2023-09-19T13:06:37;95394.97;;;22.01;55.97
69171;BME280;56279;47.902;12.308;2023-09-19T13:08:41;95389.59;;;22.01;57.01
69171;BME280;56279;47.902;12.308;2023-09-19T13:11:02;95398.09;;;22.03;56.28
69171;BME280;56279;47.902;12.308;2023-09-19T13:13:22;95390.41;;;22.02;56.03
69171;BME280;56279;47.902;12.308;2023-09-19T13:15:51;95396.88;;;22.01;55.34
69171;BME280;56279;47.902;12.308;2023-09-19T13:17:53;95391.44;;;21.97;55.67
69171;BME280;56279;47.902;12.308;2023-09-19T13:19:55;95394.03;;;21.94;55.22
69171;BME280;56279;47.902;12.308;2023-09-19T13:21:58;95391.63;;;21.89;55.70
69171;BME280;56279;47.902;12.308;2023-09-19T13:26:21;95386.56;;;21.87;55.78
69171;BME280;56279;47.902;12.308;2023-09-19T13:28:23;95377.72;;;21.87;55.70
69171;BME280;56279;47.902;12.308;2023-09-19T13:30:27;95375.56;;;21.92;55.75
69171;BME280;56279;47.902;12.308;2023-09-19T13:32:32;95389.59;;;22.01;56.10
69171;BME280;56279;47.902;12.308;2023-09-19T13:34:34;95387.09;;;22.09;55.73
69171;BME280;56279;47.902;12.308;2023-09-19T13:36:36;95374.50;;;22.13;55.77
69171;BME280;56279;47.902;12.308;2023-09-19T13:38:39;95365.84;;;22.19;55.52